sensor_id;sensor_type;location;lat;lon;timestamp;pressure;altitude;pressure_sealevel;temperature;humidity
60719;BME280;46567;51.660;5.824;2022-11-15T00:04:06;100780.0;;;9.3;88.0
60719;BME280;46567;51.660;5.824;2022-11-15T00:09:06;100790.0;;;9.3;88.5
60719;BME280;46567;51.660;5.824;2022-11-15T00:14:06;100780.0;;;9.4;88.5
60719;BME280;46567;51.660;5.824;2022-11-15T00:19:06;100780.0;;;9.4;89.0
60719;BME280;46567;51.660;5.824;2022-11-15T00:24:06;100780.0;;;9.5;89.0
60719;BME280;46567;51.660;5.824;2022-11-15T00:29:06;100780.0;;;9.5;89.0
60719;BME280;46567;51.660;5.824;2022-11-15T00:34:06;100770.0;;;9.6;89.0
60719;BME280;46567;51.660;5.824;2022-11-15T00:39:06;100770.0;;;9.7;89.5
60719;BME280;46567;51.660;5.824;2022-11-15T00:44:06;100770.0;;;9.8;89.5
60719;BME280;46567;51.660;5.824;2022-11-15T00:49:06;100770.0;;;9.8;89.5
60719;BME280;46567;51.660;5.824;2022-11-15T00:54:06;100770.0;;;9.8;89.5
60719;BME280;46567;51.660;5.824;2022-11-15T00:59:06;100760.0;;;9.9;89.5
60719;BME280;46567;51.660;5.824;2022-11-15T01:04:06;100750.0;;;9.9;89.5
60719;BME280;46567;51.660;5.824;2022-11-15T01:09:06;100750.0;;;9.9;89.5
60719;BME280;46567;51.660;5.824;2022-11-15T01:14:06;100750.0;;;9.9;89.5
60719;BME280;46567;51.660;5.824;2022-11-15T01:19:06;100750.0;;;10.0;89.5
60719;BME280;46567;51.660;5.824;2022-11-15T01:24:07;100740.0;;;10.0;89.5
60719;BME280;46567;51.660;5.824;2022-11-15T01:29:06;100740.0;;;10.0;89.5
60719;BME280;46567;51.660;5.824;2022-11-15T01:34:06;100730.0;;;10.0;89.5
60719;BME280;46567;51.660;5.824;2022-11-15T01:39:07;100720.0;;;10.0;89.5
60719;BME280;46567;51.660;5.824;2022-11-15T01:44:44;100720.0;;;10.1;90.0
60719;BME280;46567;51.660;5.824;2022-11-15T01:49:11;100720.0;;;10.1;90.0
60719;BME280;46567;51.660;5.824;2022-11-15T01:54:10;100720.0;;;10.1;90.0
60719;BME280;46567;51.660;5.824;2022-11-15T01:59:07;100720.0;;;10.2;90.5
60719;BME280;46567;51.660;5.824;2022-11-15T02:04:10;100720.0;;;10.2;90.5
60719;BME280;46567;51.660;5.824;2022-11-15T02:09:06;100710.0;;;10.2;90.5
60719;BME280;46567;51.660;5.824;2022-11-15T02:14:06;100710.0;;;10.3;90.5
60719;BME280;46567;51.660;5.824;2022-11-15T02:19:31;100690.0;;;10.3;90.5
60719;BME280;46567;51.660;5.824;2022-11-15T02:25:38;100690.0;;;10.4;90.5
60719;BME280;46567;51.660;5.824;2022-11-15T02:30:21;100690.0;;;10.5;91.0
60719;BME280;46567;51.660;5.824;2022-11-15T02:34:34;100680.0;;;10.6;91.0
60719;BME280;46567;51.660;5.824;2022-11-15T02:39:23;100670.0;;;10.7;91.0
60719;BME280;46567;51.660;5.824;2022-11-15T02:44:08;100680.0;;;10.8;91.5
60719;BME280;46567;51.660;5.824;2022-11-15T02:49:06;100670.0;;;10.9;91.5
60719;BME280;46567;51.660;5.824;2022-11-15T02:54:06;100680.0;;;11.0;91.5
60719;BME280;46567;51.660;5.824;2022-11-15T02:59:56;100670.0;;;11.1;91.5
60719;BME280;46567;51.660;5.824;2022-11-15T03:04:55;100670.0;;;11.3;92.0
60719;BME280;46567;51.660;5.824;2022-11-15T03:09:22;100660.0;;;11.4;92.0
60719;BME280;46567;51.660;5.824;2022-11-15T03:14:12;100660.0;;;11.5;92.0
60719;BME280;46567;51.660;5.824;2022-11-15T03:19:13;100650.0;;;11.5;92.0
60719;BME280;46567;51.660;5.824;2022-11-15T03:24:08;100660.0;;;11.6;92.5
60719;BME280;46567;51.660;5.824;2022-11-15T03:29:12;100640.0;;;11.7;92.5
60719;BME280;46567;51.660;5.824;2022-11-15T03:34:14;100650.0;;;11.7;92.5
60719;BME280;46567;51.660;5.824;2022-11-15T03:39:08;100650.0;;;11.8;92.5
60719;BME280;46567;51.660;5.824;2022-11-15T03:44:14;100650.0;;;11.8;92.5
60719;BME280;46567;51.660;5.824;2022-11-15T03:49:15;100660.0;;;11.9;92.5
60719;BME280;46567;51.660;5.824;2022-11-15T03:54:06;100660.0;;;11.9;92.5
60719;BME280;46567;51.660;5.824;2022-11-15T03:59:06;100650.0;;;12.0;93.0
60719;BME280;46567;51.660;5.824;2022-11-15T04:04:06;100650.0;;;12.0;93.0
60719;BME280;46567;51.660;5.824;2022-11-15T04:09:06;100650.0;;;12.1;93.0
60719;BME280;46567;51.660;5.824;2022-11-15T04:14:06;100660.0;;;12.2;93.0
60719;BME280;46567;51.660;5.824;2022-11-15T04:19:06;100660.0;;;12.2;93.0
60719;BME280;46567;51.660;5.824;2022-11-15T04:24:06;100650.0;;;12.3;93.5
60719;BME280;46567;51.660;5.824;2022-11-15T04:29:06;100650.0;;;12.3;93.5
60719;BME280;46567;51.660;5.824;2022-11-15T04:34:06;100650.0;;;12.3;93.5
60719;BME280;46567;51.660;5.824;2022-11-15T04:39:06;100660.0;;;12.4;94.0
60719;BME280;46567;51.660;5.824;2022-11-15T04:44:06;100650.0;;;12.4;94.0
60719;BME280;46567;51.660;5.824;2022-11-15T04:49:06;100650.0;;;12.4;94.0
60719;BME280;46567;51.660;5.824;2022-11-15T04:54:06;100650.0;;;12.4;94.0
60719;BME280;46567;51.660;5.824;2022-11-15T04:59:06;100640.0;;;12.4;94.0
60719;BME280;46567;51.660;5.824;2022-11-15T05:04:07;100640.0;;;12.3;94.0
60719;BME280;46567;51.660;5.824;2022-11-15T05:09:06;100640.0;;;12.3;94.0
60719;BME280;46567;51.660;5.824;2022-11-15T05:14:06;100640.0;;;12.3;94.0
60719;BME280;46567;51.660;5.824;2022-11-15T05:19:06;100650.0;;;12.3;94.0
60719;BME280;46567;51.660;5.824;2022-11-15T05:24:06;100640.0;;;12.3;94.0
60719;BME280;46567;51.660;5.824;2022-11-15T05:29:08;100650.0;;;12.3;94.0
60719;BME280;46567;51.660;5.824;2022-11-15T05:34:06;100650.0;;;12.3;94.0
60719;BME280;46567;51.660;5.824;2022-11-15T05:39:07;100640.0;;;12.3;94.0
60719;BME280;46567;51.660;5.824;2022-11-15T05:44:11;100630.0;;;12.2;94.5
60719;BME280;46567;51.660;5.824;2022-11-15T05:49:10;100640.0;;;12.2;94.5
60719;BME280;46567;51.660;5.824;2022-11-15T05:54:06;100640.0;;;12.2;94.5
60719;BME280;46567;51.660;5.824;2022-11-15T05:59:07;100630.0;;;12.3;94.5
60719;BME280;46567;51.660;5.824;2022-11-15T06:04:06;100640.0;;;12.2;94.5
60719;BME280;46567;51.660;5.824;2022-11-15T06:09:06;100650.0;;;12.3;94.5
60719;BME280;46567;51.660;5.824;2022-11-15T06:14:06;100650.0;;;12.3;94.5
60719;BME280;46567;51.660;5.824;2022-11-15T06:19:06;100650.0;;;12.3;95.0
60719;BME280;46567;51.660;5.824;2022-11-15T06:24:06;100640.0;;;12.3;95.0
60719;BME280;46567;51.660;5.824;2022-11-15T06:29:06;100650.0;;;12.3;95.0
60719;BME280;46567;51.660;5.824;2022-11-15T06:34:06;100640.0;;;12.3;95.0
60719;BME280;46567;51.660;5.824;2022-11-15T06:39:06;100650.0;;;12.3;95.5
60719;BME280;46567;51.660;5.824;2022-11-15T06:44:06;100660.0;;;12.3;95.5
60719;BME280;46567;51.660;5.824;2022-11-15T06:49:06;100660.0;;;12.3;95.5
60719;BME280;46567;51.660;5.824;2022-11-15T06:54:06;100670.0;;;12.4;95.5
60719;BME280;46567;51.660;5.824;2022-11-15T06:59:06;100680.0;;;12.4;95.5
60719;BME280;46567;51.660;5.824;2022-11-15T07:04:06;100680.0;;;12.4;95.5
60719;BME280;46567;51.660;5.824;2022-11-15T07:09:06;100690.0;;;12.4;95.5
60719;BME280;46567;51.660;5.824;2022-11-15T07:14:06;100680.0;;;12.4;95.5
60719;BME280;46567;51.660;5.824;2022-11-15T07:19:08;100690.0;;;12.5;95.5
60719;BME280;46567;51.660;5.824;2022-11-15T07:24:06;100690.0;;;12.5;95.5
60719;BME280;46567;51.660;5.824;2022-11-15T07:29:06;100690.0;;;12.5;95.5
60719;BME280;46567;51.660;5.824;2022-11-15T07:34:06;100690.0;;;12.5;95.5
60719;BME280;46567;51.660;5.824;2022-11-15T07:39:06;100700.0;;;12.5;95.5
60719;BME280;46567;51.660;5.824;2022-11-15T07:44:06;100700.0;;;12.5;95.5
60719;BME280;46567;51.660;5.824;2022-11-15T07:49:06;100700.0;;;12.5;95.5
60719;BME280;46567;51.660;5.824;2022-11-15T07:54:06;100700.0;;;12.5;95.5
60719;BME280;46567;51.660;5.824;2022-11-15T07:59:06;100690.0;;;12.5;95.5
60719;BME280;46567;51.660;5.824;2022-11-15T08:04:06;100690.0;;;12.5;95.5
60719;BME280;46567;51.660;5.824;2022-11-15T08:09:06;100690.0;;;12.5;95.5
60719;BME280;46567;51.660;5.824;2022-11-15T08:14:06;100690.0;;;12.5;95.0
60719;BME280;46567;51.660;5.824;2022-11-15T08:19:06;100700.0;;;12.5;95.0
60719;BME280;46567;51.660;5.824;2022-11-15T08:24:09;100690.0;;;12.5;95.0
60719;BME280;46567;51.660;5.824;2022-11-15T08:29:06;100700.0;;;12.5;95.5
60719;BME280;46567;51.660;5.824;2022-11-15T08:34:06;100700.0;;;12.5;95.5
60719;BME280;46567;51.660;5.824;2022-11-15T08:39:09;100690.0;;;12.5;95.5
60719;BME280;46567;51.660;5.824;2022-11-15T08:44:06;100700.0;;;12.4;95.0
60719;BME280;46567;51.660;5.824;2022-11-15T08:49:06;100700.0;;;12.4;95.0
60719;BME280;46567;51.660;5.824;2022-11-15T08:54:06;100690.0;;;12.4;95.0
60719;BME280;46567;51.660;5.824;2022-11-15T08:59:06;100680.0;;;12.5;95.5
60719;BME280;46567;51.660;5.824;2022-11-15T09:04:06;100680.0;;;12.5;95.5
60719;BME280;46567;51.660;5.824;2022-11-15T09:09:06;100670.0;;;12.5;95.0
60719;BME280;46567;51.660;5.824;2022-11-15T09:14:06;100670.0;;;12.5;95.0
60719;BME280;46567;51.660;5.824;2022-11-15T09:19:06;100680.0;;;12.5;95.0
60719;BME280;46567;51.660;5.824;2022-11-15T09:24:06;100660.0;;;12.6;95.0
60719;BME280;46567;51.660;5.824;2022-11-15T09:29:06;100660.0;;;12.6;95.0
60719;BME280;46567;51.660;5.824;2022-11-15T09:34:06;100660.0;;;12.6;94.5
60719;BME280;46567;51.660;5.824;2022-11-15T09:39:06;100650.0;;;12.6;94.5
60719;BME280;46567;51.660;5.824;2022-11-15T09:45:05;100640.0;;;12.7;94.5
60719;BME280;46567;51.660;5.824;2022-11-15T09:49:12;100640.0;;;12.7;94.5
60719;BME280;46567;51.660;5.824;2022-11-15T09:54:11;100640.0;;;12.7;94.0
60719;BME280;46567;51.660;5.824;2022-11-15T09:59:37;100630.0;;;12.8;93.5
60719;BME280;46567;51.660;5.824;2022-11-15T10:04:06;100630.0;;;12.8;92.5
60719;BME280;46567;51.660;5.824;2022-11-15T10:09:21;100620.0;;;12.8;92.5
60719;BME280;46567;51.660;5.824;2022-11-15T10:14:09;100630.0;;;12.9;92.0
60719;BME280;46567;51.660;5.824;2022-11-15T10:19:20;100630.0;;;13.0;90.5
60719;BME280;46567;51.660;5.824;2022-11-15T10:24:10;100620.0;;;13.0;89.5
60719;BME280;46567;51.660;5.824;2022-11-15T10:29:06;100620.0;;;13.1;88.5
60719;BME280;46567;51.660;5.824;2022-11-15T10:34:12;100600.0;;;13.1;88.0
60719;BME280;46567;51.660;5.824;2022-11-15T10:39:11;100590.0;;;13.1;86.0
60719;BME280;46567;51.660;5.824;2022-11-15T10:44:21;100600.0;;;13.2;86.0
60719;BME280;46567;51.660;5.824;2022-11-15T10:49:16;100590.0;;;13.3;85.0
60719;BME280;46567;51.660;5.824;2022-11-15T10:54:08;100580.0;;;13.3;85.5
60719;BME280;46567;51.660;5.824;2022-11-15T10:59:14;100570.0;;;13.4;84.5
60719;BME280;46567;51.660;5.824;2022-11-15T11:04:08;100560.0;;;13.4;84.5
60719;BME280;46567;51.660;5.824;2022-11-15T11:09:23;100560.0;;;13.5;83.5
60719;BME280;46567;51.660;5.824;2022-11-15T11:14:12;100570.0;;;13.6;83.5
60719;BME280;46567;51.660;5.824;2022-11-15T11:19:14;100560.0;;;13.6;83.0
60719;BME280;46567;51.660;5.824;2022-11-15T11:24:22;100550.0;;;13.7;83.0
60719;BME280;46567;51.660;5.824;2022-11-15T11:29:47;100540.0;;;13.7;82.0
60719;BME280;46567;51.660;5.824;2022-11-15T11:34:28;100550.0;;;13.8;82.5
60719;BME280;46567;51.660;5.824;2022-11-15T11:39:24;100530.0;;;13.9;81.5
60719;BME280;46567;51.660;5.824;2022-11-15T11:44:55;100530.0;;;13.9;80.0
60719;BME280;46567;51.660;5.824;2022-11-15T11:49:09;100520.0;;;13.8;79.5
60719;BME280;46567;51.660;5.824;2022-11-15T11:54:12;100500.0;;;13.8;79.0
60719;BME280;46567;51.660;5.824;2022-11-15T11:59:19;100490.0;;;13.7;78.0
60719;BME280;46567;51.660;5.824;2022-11-15T12:04:11;100480.0;;;13.8;78.5
60719;BME280;46567;51.660;5.824;2022-11-15T12:09:12;100470.0;;;13.8;78.0
60719;BME280;46567;51.660;5.824;2022-11-15T12:14:11;100470.0;;;13.9;78.5
60719;BME280;46567;51.660;5.824;2022-11-15T12:19:07;100460.0;;;14.1;78.0
60719;BME280;46567;51.660;5.824;2022-11-15T12:24:20;100440.0;;;14.2;77.0
60719;BME280;46567;51.660;5.824;2022-11-15T12:29:11;100430.0;;;14.3;76.5
60719;BME280;46567;51.660;5.824;2022-11-15T12:34:16;100420.0;;;14.4;76.5
60719;BME280;46567;51.660;5.824;2022-11-15T12:39:07;100410.0;;;14.4;75.0
60719;BME280;46567;51.660;5.824;2022-11-15T12:44:10;100410.0;;;14.5;73.5
60719;BME280;46567;51.660;5.824;2022-11-15T12:49:44;100400.0;;;14.5;73.5
60719;BME280;46567;51.660;5.824;2022-11-15T12:54:53;100390.0;;;14.5;74.0
60719;BME280;46567;51.660;5.824;2022-11-15T12:59:07;100380.0;;;14.5;72.5
60719;BME280;46567;51.660;5.824;2022-11-15T13:04:08;100370.0;;;14.5;72.5
60719;BME280;46567;51.660;5.824;2022-11-15T13:14:48;100360.0;;;14.4;72.5
60719;BME280;46567;51.660;5.824;2022-11-15T13:19:09;100350.0;;;14.3;72.5
60719;BME280;46567;51.660;5.824;2022-11-15T13:24:10;100340.0;;;14.3;72.0
60719;BME280;46567;51.660;5.824;2022-11-15T13:29:14;100340.0;;;14.3;73.0
60719;BME280;46567;51.660;5.824;2022-11-15T13:34:28;100330.0;;;14.3;72.0
60719;BME280;46567;51.660;5.824;2022-11-15T13:39:14;100320.0;;;14.3;72.0
60719;BME280;46567;51.660;5.824;2022-11-15T13:44:20;100310.0;;;14.3;70.5
60719;BME280;46567;51.660;5.824;2022-11-15T13:49:09;100300.0;;;14.3;71.5
60719;BME280;46567;51.660;5.824;2022-11-15T13:54:13;100300.0;;;14.3;71.0
60719;BME280;46567;51.660;5.824;2022-11-15T13:59:09;100300.0;;;14.3;71.0
60719;BME280;46567;51.660;5.824;2022-11-15T14:04:11;100280.0;;;14.2;70.5
60719;BME280;46567;51.660;5.824;2022-11-15T14:09:31;100270.0;;;14.2;70.5
60719;BME280;46567;51.660;5.824;2022-11-15T14:14:15;100270.0;;;14.2;71.0
60719;BME280;46567;51.660;5.824;2022-11-15T14:19:09;100260.0;;;14.2;70.5
60719;BME280;46567;51.660;5.824;2022-11-15T14:24:15;100260.0;;;14.1;70.5
60719;BME280;46567;51.660;5.824;2022-11-15T14:29:25;100250.0;;;14.1;71.0
60719;BME280;46567;51.660;5.824;2022-11-15T14:34:08;100240.0;;;14.1;70.0
60719;BME280;46567;51.660;5.824;2022-11-15T14:39:07;100230.0;;;14.0;70.0
60719;BME280;46567;51.660;5.824;2022-11-15T14:44:10;100220.0;;;14.0;70.5
60719;BME280;46567;51.660;5.824;2022-11-15T14:49:06;100210.0;;;13.9;70.0
60719;BME280;46567;51.660;5.824;2022-11-15T14:54:09;100210.0;;;13.9;69.0
60719;BME280;46567;51.660;5.824;2022-11-15T14:59:06;100190.0;;;13.8;69.0
60719;BME280;46567;51.660;5.824;2022-11-15T15:04:06;100180.0;;;13.8;69.5
60719;BME280;46567;51.660;5.824;2022-11-15T15:09:06;100180.0;;;13.7;68.5
60719;BME280;46567;51.660;5.824;2022-11-15T15:14:08;100170.0;;;13.7;68.5
60719;BME280;46567;51.660;5.824;2022-11-15T17:41:23;100070.0;;;18.5;72.0
60719;BME280;46567;51.660;5.824;2022-11-15T17:46:23;100060.0;;;18.8;72.5
60719;BME280;46567;51.660;5.824;2022-11-15T17:51:22;100060.0;;;19.1;73.0
60719;BME280;46567;51.660;5.824;2022-11-15T17:56:25;100070.0;;;19.5;72.0
60719;BME280;46567;51.660;5.824;2022-11-15T18:01:24;100060.0;;;19.7;71.0
60719;BME280;46567;51.660;5.824;2022-11-15T18:06:23;100050.0;;;19.9;70.5
60719;BME280;46567;51.660;5.824;2022-11-15T18:11:28;100040.0;;;20.0;69.5
60719;BME280;46567;51.660;5.824;2022-11-15T18:16:24;100040.0;;;20.1;69.0
60719;BME280;46567;51.660;5.824;2022-11-15T18:21:25;100030.0;;;20.2;68.0
60719;BME280;46567;51.660;5.824;2022-11-15T18:26:25;100030.0;;;20.3;68.0
60719;BME280;46567;51.660;5.824;2022-11-15T18:31:26;100030.0;;;20.3;67.5
60719;BME280;46567;51.660;5.824;2022-11-15T18:36:24;100020.0;;;20.3;67.0
60719;BME280;46567;51.660;5.824;2022-11-15T18:41:24;100020.0;;;20.4;66.5
60719;BME280;46567;51.660;5.824;2022-11-15T18:46:24;100010.0;;;20.4;66.0
60719;BME280;46567;51.660;5.824;2022-11-15T18:51:24;100020.0;;;20.4;65.5
60719;BME280;46567;51.660;5.824;2022-11-15T18:56:24;100000.0;;;20.5;65.5
60719;BME280;46567;51.660;5.824;2022-11-15T19:01:24;100000.0;;;20.5;65.0
60719;BME280;46567;51.660;5.824;2022-11-15T19:06:24;100010.0;;;20.5;64.5
60719;BME280;46567;51.660;5.824;2022-11-15T19:11:25;100000.0;;;20.5;64.5
60719;BME280;46567;51.660;5.824;2022-11-15T19:16:23;100000.0;;;20.5;64.5
60719;BME280;46567;51.660;5.824;2022-11-15T19:21:24;99990.0;;;20.5;64.0
60719;BME280;46567;51.660;5.824;2022-11-15T19:26:23;99990.0;;;20.5;64.0
60719;BME280;46567;51.660;5.824;2022-11-15T19:31:23;99990.0;;;20.4;63.5
60719;BME280;46567;51.660;5.824;2022-11-15T19:36:24;99990.0;;;20.4;63.5
60719;BME280;46567;51.660;5.824;2022-11-15T19:41:23;99980.0;;;20.4;63.5
60719;BME280;46567;51.660;5.824;2022-11-15T19:46:23;99980.0;;;20.4;63.0
60719;BME280;46567;51.660;5.824;2022-11-15T19:51:26;99990.0;;;20.4;63.0
60719;BME280;46567;51.660;5.824;2022-11-15T19:56:23;99980.0;;;20.4;63.0
60719;BME280;46567;51.660;5.824;2022-11-15T20:01:24;99980.0;;;20.4;62.5
60719;BME280;46567;51.660;5.824;2022-11-15T20:06:25;99970.0;;;20.4;62.5
60719;BME280;46567;51.660;5.824;2022-11-15T20:11:23;99980.0;;;20.5;62.5
60719;BME280;46567;51.660;5.824;2022-11-15T20:16:23;99960.0;;;20.4;62.0
60719;BME280;46567;51.660;5.824;2022-11-15T20:21:23;99960.0;;;20.4;62.0
60719;BME280;46567;51.660;5.824;2022-11-15T20:26:23;99950.0;;;20.4;62.0
60719;BME280;46567;51.660;5.824;2022-11-15T20:31:23;99950.0;;;20.4;62.0
60719;BME280;46567;51.660;5.824;2022-11-15T20:36:23;99960.0;;;20.4;62.0
60719;BME280;46567;51.660;5.824;2022-11-15T20:41:23;99950.0;;;20.4;62.0
60719;BME280;46567;51.660;5.824;2022-11-15T20:46:23;99940.0;;;20.4;61.5
60719;BME280;46567;51.660;5.824;2022-11-15T20:51:23;99950.0;;;20.4;61.5
60719;BME280;46567;51.660;5.824;2022-11-15T20:56:23;99930.0;;;20.4;61.0
60719;BME280;46567;51.660;5.824;2022-11-15T21:01:23;99930.0;;;20.4;61.0
60719;BME280;46567;51.660;5.824;2022-11-15T21:06:25;99930.0;;;20.5;61.0
60719;BME280;46567;51.660;5.824;2022-11-15T21:11:23;99910.0;;;20.5;61.0
60719;BME280;46567;51.660;5.824;2022-11-15T21:16:23;99910.0;;;20.5;61.0
60719;BME280;46567;51.660;5.824;2022-11-15T21:21:23;99910.0;;;20.4;61.0
60719;BME280;46567;51.660;5.824;2022-11-15T21:26:23;99910.0;;;20.4;60.5
60719;BME280;46567;51.660;5.824;2022-11-15T21:31:23;99900.0;;;20.4;60.5
60719;BME280;46567;51.660;5.824;2022-11-15T21:36:23;99890.0;;;20.4;60.5
60719;BME280;46567;51.660;5.824;2022-11-15T21:41:23;99890.0;;;20.4;60.5
60719;BME280;46567;51.660;5.824;2022-11-15T21:46:23;99890.0;;;20.3;60.5
60719;BME280;46567;51.660;5.824;2022-11-15T21:51:23;99890.0;;;20.3;60.5
60719;BME280;46567;51.660;5.824;2022-11-15T21:56:24;99870.0;;;20.3;60.0
60719;BME280;46567;51.660;5.824;2022-11-15T22:01:25;99870.0;;;20.4;60.0
60719;BME280;46567;51.660;5.824;2022-11-15T22:06:23;99870.0;;;20.4;60.0
60719;BME280;46567;51.660;5.824;2022-11-15T22:11:23;99860.0;;;20.4;60.0
60719;BME280;46567;51.660;5.824;2022-11-15T22:16:23;99860.0;;;20.4;60.0
60719;BME280;46567;51.660;5.824;2022-11-15T22:21:23;99850.0;;;20.4;59.5
60719;BME280;46567;51.660;5.824;2022-11-15T22:26:23;99840.0;;;20.4;59.5
60719;BME280;46567;51.660;5.824;2022-11-15T22:31:23;99830.0;;;20.4;59.5
60719;BME280;46567;51.660;5.824;2022-11-15T22:36:23;99840.0;;;20.3;59.5
60719;BME280;46567;51.660;5.824;2022-11-15T22:41:23;99830.0;;;20.3;59.5
60719;BME280;46567;51.660;5.824;2022-11-15T22:46:23;99830.0;;;20.3;59.5
60719;BME280;46567;51.660;5.824;2022-11-15T22:51:23;99820.0;;;20.3;59.5
60719;BME280;46567;51.660;5.824;2022-11-15T22:56:23;99820.0;;;20.3;59.5
60719;BME280;46567;51.660;5.824;2022-11-15T23:01:23;99820.0;;;20.4;59.5
60719;BME280;46567;51.660;5.824;2022-11-15T23:06:23;99810.0;;;20.4;59.5
60719;BME280;46567;51.660;5.824;2022-11-15T23:11:23;99810.0;;;20.4;59.0
60719;BME280;46567;51.660;5.824;2022-11-15T23:16:23;99810.0;;;20.4;59.0
60719;BME280;46567;51.660;5.824;2022-11-15T23:21:25;99800.0;;;20.4;59.0
60719;BME280;46567;51.660;5.824;2022-11-15T23:26:23;99800.0;;;20.4;59.0
60719;BME280;46567;51.660;5.824;2022-11-15T23:31:23;99800.0;;;20.4;59.0
60719;BME280;46567;51.660;5.824;2022-11-15T23:36:23;99800.0;;;20.4;59.0
60719;BME280;46567;51.660;5.824;2022-11-15T23:41:24;99800.0;;;20.3;59.0
60719;BME280;46567;51.660;5.824;2022-11-15T23:46:23;99790.0;;;20.3;59.0
60719;BME280;46567;51.660;5.824;2022-11-15T23:51:23;99790.0;;;20.3;59.0
60719;BME280;46567;51.660;5.824;2022-11-15T23:56:23;99780.0;;;20.3;58.5
